createdAt,value
2018-09-17T00:00:13.751Z,18.96
2018-09-17T00:00:39.882Z,18.95
2018-09-17T00:01:06.020Z,19.09
2018-09-17T00:01:32.160Z,19.07
2018-09-17T00:01:58.288Z,19.07
2018-09-17T00:02:24.428Z,19.04
2018-09-17T00:02:50.659Z,18.96
2018-09-17T00:03:16.709Z,18.96
2018-09-17T00:03:42.873Z,19.12
2018-09-17T00:04:09.002Z,19.07
2018-09-17T00:04:35.131Z,18.98
2018-09-17T00:05:01.260Z,19.07
2018-09-17T00:05:27.397Z,19.09
2018-09-17T00:05:53.524Z,19
2018-09-17T00:06:19.654Z,19.08
2018-09-17T00:06:45.816Z,19.07
2018-09-17T00:07:11.949Z,19.07
2018-09-17T00:07:38.086Z,19.07
2018-09-17T00:08:04.240Z,19.09
2018-09-17T00:08:30.394Z,19.09
2018-09-17T00:08:56.520Z,19.11
2018-09-17T00:09:22.684Z,19.09
2018-09-17T00:09:48.844Z,19.11
2018-09-17T00:10:14.969Z,19.09
2018-09-17T00:10:41.108Z,19.07
2018-09-17T00:11:07.237Z,19.04
2018-09-17T00:11:33.401Z,19.02
2018-09-17T00:11:59.556Z,19.09
2018-09-17T00:12:25.710Z,19.11
2018-09-17T00:12:51.842Z,19.08
2018-09-17T00:13:18.010Z,19.08
2018-09-17T00:13:44.151Z,19.04
2018-09-17T00:14:10.286Z,19.11
2018-09-17T00:14:36.456Z,19.14
2018-09-17T00:15:02.618Z,19.09
2018-09-17T00:15:28.748Z,19.04
2018-09-17T00:15:54.884Z,19.09
2018-09-17T00:16:21.018Z,19.09
2018-09-17T00:16:47.164Z,19.07
2018-09-17T00:17:13.301Z,19
2018-09-17T00:17:39.434Z,19.07
2018-09-17T00:18:05.559Z,18.99
2018-09-17T00:18:31.687Z,19.11
2018-09-17T00:18:57.824Z,18.99
2018-09-17T00:19:23.953Z,19.07
2018-09-17T00:19:50.090Z,18.99
2018-09-17T00:20:16.245Z,19
2018-09-17T00:20:42.378Z,19
2018-09-17T00:21:08.506Z,19.08
2018-09-17T00:21:34.645Z,18.99
2018-09-17T00:22:00.780Z,19.02
2018-09-17T00:22:26.940Z,19
2018-09-17T00:22:53.064Z,18.96
2018-09-17T00:23:19.204Z,18.96
2018-09-17T00:23:45.337Z,19
2018-09-17T00:24:11.468Z,18.99
2018-09-17T00:24:37.620Z,19.07
2018-09-17T00:25:03.760Z,18.99
2018-09-17T00:25:29.909Z,18.98
2018-09-17T00:25:56.042Z,18.93
2018-09-17T00:26:22.204Z,18.98
2018-09-17T00:26:48.357Z,18.98
2018-09-17T00:27:14.487Z,19.07
2018-09-17T00:27:40.622Z,18.9
2018-09-17T00:28:06.753Z,19.04
2018-09-17T00:28:32.889Z,18.88
2018-09-17T00:28:59.028Z,18.9
2018-09-17T00:29:25.159Z,18.92
2018-09-17T00:29:51.317Z,18.86
2018-09-17T00:30:17.476Z,18.84
2018-09-17T00:30:43.623Z,18.83
2018-09-17T00:31:09.769Z,18.88
2018-09-17T00:31:35.924Z,18.88
2018-09-17T00:32:02.085Z,18.88
2018-09-17T00:32:28.215Z,18.84
2018-09-17T00:32:54.355Z,18.88
2018-09-17T00:33:20.489Z,18.89
2018-09-17T00:33:46.624Z,18.83
2018-09-17T00:34:12.779Z,18.75
2018-09-17T00:34:38.936Z,18.8
2018-09-17T00:35:05.119Z,18.65
2018-09-17T00:35:31.250Z,18.74
2018-09-17T00:35:57.401Z,18.7
2018-09-17T00:36:23.539Z,18.63
2018-09-17T00:36:49.677Z,18.71
2018-09-17T00:37:15.834Z,18.73
2018-09-17T00:37:41.974Z,18.68
2018-09-17T00:38:08.141Z,18.77
2018-09-17T00:38:34.274Z,18.71
2018-09-17T00:39:00.418Z,18.8
2018-09-17T00:39:26.551Z,18.73
2018-09-17T00:39:52.684Z,18.77
2018-09-17T00:40:18.816Z,18.78
2018-09-17T00:40:44.953Z,18.66
2018-09-17T00:41:11.087Z,18.81
2018-09-17T00:41:37.245Z,18.71
2018-09-17T00:42:03.375Z,18.78
2018-09-17T00:42:29.511Z,18.71
2018-09-17T00:42:55.645Z,18.73
2018-09-17T00:43:21.796Z,18.77
2018-09-17T00:43:47.929Z,18.73
2018-09-17T00:44:14.061Z,18.71
2018-09-17T00:44:40.194Z,18.75
2018-09-17T00:45:06.352Z,18.68
2018-09-17T00:45:32.481Z,18.71
2018-09-17T00:45:58.617Z,18.75
2018-09-17T00:46:24.799Z,18.71
2018-09-17T00:46:50.957Z,18.73
2018-09-17T00:47:17.097Z,18.77
2018-09-17T00:47:43.225Z,18.8
2018-09-17T00:48:09.361Z,18.77
2018-09-17T00:48:35.493Z,18.71
2018-09-17T00:49:01.630Z,18.77
2018-09-17T00:49:27.762Z,18.71
2018-09-17T00:49:53.893Z,18.73
2018-09-17T00:50:20.029Z,18.68
2018-09-17T00:50:46.161Z,18.66
2018-09-17T00:51:12.293Z,18.7
2018-09-17T00:51:38.430Z,18.68
2018-09-17T00:52:04.563Z,18.78
2018-09-17T00:52:30.742Z,18.8
2018-09-17T00:52:56.873Z,18.77
2018-09-17T00:53:23.009Z,18.71
2018-09-17T00:53:49.147Z,18.7
2018-09-17T00:54:15.303Z,18.78
2018-09-17T00:54:41.469Z,18.65
2018-09-17T00:55:07.621Z,18.62
2018-09-17T00:55:33.761Z,18.58
2018-09-17T00:55:59.909Z,18.6
2018-09-17T00:56:26.047Z,18.58
2018-09-17T00:56:52.182Z,18.55
2018-09-17T00:57:18.318Z,18.52
2018-09-17T00:57:44.450Z,18.52
2018-09-17T00:58:10.615Z,18.53
2018-09-17T00:58:36.765Z,18.5
2018-09-17T00:59:02.898Z,18.47
2018-09-17T00:59:29.037Z,18.52
2018-09-17T00:59:55.187Z,18.5
2018-09-17T01:00:21.327Z,18.5
2018-09-17T01:00:47.481Z,18.52
2018-09-17T01:01:13.617Z,18.56
2018-09-17T01:01:39.743Z,18.49
2018-09-17T01:02:05.872Z,18.52
2018-09-17T01:02:32.006Z,18.37
2018-09-17T01:02:58.142Z,18.41
2018-09-17T01:03:24.272Z,18.4
2018-09-17T01:03:50.406Z,18.44
2018-09-17T01:04:16.563Z,18.43
2018-09-17T01:04:42.699Z,18.41
2018-09-17T01:05:08.831Z,18.41
2018-09-17T01:05:34.963Z,18.33
2018-09-17T01:06:01.093Z,18.34
2018-09-17T01:06:27.245Z,18.38
2018-09-17T01:06:53.380Z,18.28
2018-09-17T01:07:19.522Z,18.26
2018-09-17T01:07:45.649Z,18.26
2018-09-17T01:08:11.811Z,18.23
2018-09-17T01:08:37.939Z,18.28
2018-09-17T01:09:04.075Z,18.29
2018-09-17T01:09:30.208Z,18.26
2018-09-17T01:09:56.338Z,18.22
2018-09-17T01:10:22.474Z,18.11
2018-09-17T01:10:48.611Z,18.15
2018-09-17T01:11:14.766Z,18.08
2018-09-17T01:11:40.899Z,18.11
2018-09-17T01:12:07.037Z,18.08
2018-09-17T01:12:33.164Z,18.08
2018-09-17T01:12:59.306Z,18.07
2018-09-17T01:13:25.467Z,18.11
2018-09-17T01:13:51.598Z,18.18
2018-09-17T01:14:17.760Z,18.15
2018-09-17T01:14:43.891Z,18.15
2018-09-17T01:15:10.044Z,18.2
2018-09-17T01:15:36.163Z,18.15
2018-09-17T01:16:02.299Z,18.11
2018-09-17T01:16:28.433Z,18.18
2018-09-17T01:16:54.568Z,18.22
2018-09-17T01:17:20.706Z,18.25
2018-09-17T01:17:46.865Z,18.25
2018-09-17T01:18:13.000Z,18.2
2018-09-17T01:18:39.158Z,18.2
2018-09-17T01:19:05.323Z,18.19
2018-09-17T01:19:31.480Z,18.2
2018-09-17T01:19:57.612Z,18.25
2018-09-17T01:20:23.746Z,18.23
2018-09-17T01:20:49.879Z,18.22
2018-09-17T01:21:16.014Z,18.28
2018-09-17T01:21:42.154Z,18.33
2018-09-17T01:22:08.314Z,18.28
2018-09-17T01:22:34.448Z,18.28
2018-09-17T01:23:00.585Z,18.33
2018-09-17T01:23:26.715Z,18.2
2018-09-17T01:23:52.850Z,18.22
2018-09-17T01:24:18.988Z,18.22
2018-09-17T01:24:45.115Z,18.18
2018-09-17T01:25:11.251Z,18.13
2018-09-17T01:25:37.385Z,18.23
2018-09-17T01:26:03.540Z,18.1
2018-09-17T01:26:29.678Z,18.13
2018-09-17T01:26:55.808Z,18.15
2018-09-17T01:27:21.940Z,18.08
2018-09-17T01:27:48.077Z,18.13
2018-09-17T01:28:14.213Z,18.18
2018-09-17T01:28:40.390Z,18.05
2018-09-17T01:29:06.523Z,18.05
2018-09-17T01:29:32.662Z,18.05
2018-09-17T01:29:58.821Z,18.1
2018-09-17T01:30:24.991Z,18.01
2018-09-17T01:30:51.104Z,17.92
2018-09-17T01:31:17.239Z,18
2018-09-17T01:31:43.390Z,17.94
2018-09-17T01:32:09.525Z,17.92
2018-09-17T01:32:35.665Z,18.01
2018-09-17T01:33:01.817Z,17.92
2018-09-17T01:33:27.944Z,17.97
2018-09-17T01:33:54.081Z,18.01
2018-09-17T01:34:20.214Z,18
2018-09-17T01:34:46.346Z,18.01
2018-09-17T01:35:12.505Z,18.05
2018-09-17T01:35:38.663Z,18.08
2018-09-17T01:36:04.821Z,18.04
2018-09-17T01:36:30.972Z,18.04
2018-09-17T01:36:57.100Z,18.01
2018-09-17T01:37:23.257Z,18.05
2018-09-17T01:37:49.462Z,18.08
2018-09-17T01:38:15.619Z,18.1
2018-09-17T01:38:41.759Z,18.07
2018-09-17T01:39:07.889Z,18.1
2018-09-17T01:39:34.022Z,18.11
2018-09-17T01:40:00.152Z,18.07
2018-09-17T01:40:26.291Z,18.07
2018-09-17T01:40:52.420Z,18.11
2018-09-17T01:41:18.554Z,18.2
2018-09-17T01:41:44.689Z,18.1
2018-09-17T01:42:10.847Z,18.08
2018-09-17T01:42:36.985Z,18.11
2018-09-17T01:43:03.123Z,18.07
2018-09-17T01:43:29.254Z,18.05
2018-09-17T01:43:55.413Z,18.11
2018-09-17T01:44:21.565Z,18.07
2018-09-17T01:44:47.705Z,18.08
2018-09-17T01:45:13.838Z,18.03
2018-09-17T01:45:40.024Z,18.05
2018-09-17T01:46:06.188Z,18.03
2018-09-17T01:46:32.305Z,18.04
2018-09-17T01:46:58.436Z,18.04
2018-09-17T01:47:24.572Z,18.01
2018-09-17T01:47:50.704Z,18.08
2018-09-17T01:48:16.835Z,18.04
2018-09-17T01:48:42.974Z,18.05
2018-09-17T01:49:09.109Z,18.08
2018-09-17T01:49:35.264Z,18.03
2018-09-17T01:50:01.406Z,18.04
2018-09-17T01:50:27.532Z,17.95
2018-09-17T01:50:53.668Z,18
2018-09-17T01:51:19.801Z,17.94
2018-09-17T01:51:45.932Z,18.04
2018-09-17T01:52:12.070Z,17.87
2018-09-17T01:52:38.208Z,17.92
2018-09-17T01:53:04.361Z,17.92
2018-09-17T01:53:30.488Z,17.85
2018-09-17T01:53:56.635Z,17.85
2018-09-17T01:54:22.768Z,17.82
2018-09-17T01:54:48.900Z,17.89
2018-09-17T01:55:15.035Z,17.83
2018-09-17T01:55:41.168Z,17.85
2018-09-17T01:56:07.304Z,17.67
2018-09-17T01:56:33.460Z,17.82
2018-09-17T01:56:59.620Z,17.86
2018-09-17T01:57:25.779Z,17.74
2018-09-17T01:57:51.917Z,17.82
2018-09-17T01:58:18.054Z,17.74
2018-09-17T01:58:44.214Z,17.65
2018-09-17T01:59:10.350Z,17.48
2018-09-17T01:59:36.499Z,17.45
2018-09-17T02:00:02.630Z,17.45
2018-09-17T02:00:28.789Z,17.45
2018-09-17T02:00:54.926Z,17.36
2018-09-17T02:01:21.066Z,17.38
2018-09-17T02:01:47.213Z,17.41
2018-09-17T02:02:13.378Z,17.42
2018-09-17T02:02:39.507Z,17.44
2018-09-17T02:03:05.637Z,17.46
2018-09-17T02:03:31.794Z,17.41
2018-09-17T02:03:57.930Z,17.49
2018-09-17T02:04:24.066Z,17.49
2018-09-17T02:04:50.203Z,17.52
2018-09-17T02:05:16.361Z,17.48
2018-09-17T02:05:42.490Z,17.57
2018-09-17T02:06:08.627Z,17.56
2018-09-17T02:06:34.792Z,17.6
2018-09-17T02:07:00.926Z,17.57
2018-09-17T02:07:27.062Z,17.64
2018-09-17T02:07:53.199Z,17.6
2018-09-17T02:08:19.331Z,17.54
2018-09-17T02:08:45.496Z,17.6
2018-09-17T02:09:11.720Z,17.64
2018-09-17T02:09:37.811Z,17.56
2018-09-17T02:10:04.028Z,17.65
2018-09-17T02:10:30.079Z,17.65
2018-09-17T02:10:56.214Z,17.64
2018-09-17T02:11:22.351Z,17.48
2018-09-17T02:11:48.484Z,17.54
2018-09-17T02:12:14.620Z,17.52
2018-09-17T02:12:40.752Z,17.46
2018-09-17T02:13:06.887Z,17.44
2018-09-17T02:13:33.019Z,17.42
2018-09-17T02:13:59.173Z,17.54
2018-09-17T02:14:25.311Z,17.51
2018-09-17T02:14:51.440Z,17.51
2018-09-17T02:15:17.597Z,17.44
2018-09-17T02:15:43.730Z,17.44
2018-09-17T02:16:09.859Z,17.42
2018-09-17T02:16:35.996Z,17.34
2018-09-17T02:17:02.146Z,17.31
2018-09-17T02:17:28.307Z,17.15
2018-09-17T02:17:54.469Z,17.24
2018-09-17T02:18:20.606Z,17.16
2018-09-17T02:18:46.735Z,17.24
2018-09-17T02:19:12.872Z,17.24
2018-09-17T02:19:39.006Z,17.24
2018-09-17T02:20:05.168Z,17.22
2018-09-17T02:20:31.298Z,17.24
2018-09-17T02:20:57.436Z,17.12
2018-09-17T02:21:23.600Z,17.16
2018-09-17T02:21:49.729Z,17.2
2018-09-17T02:22:15.860Z,17.16
2018-09-17T02:22:42.012Z,17.15
2018-09-17T02:23:08.166Z,17.12
2018-09-17T02:23:34.312Z,17.16
2018-09-17T02:24:00.449Z,17.05
2018-09-17T02:24:26.580Z,17.01
2018-09-17T02:24:52.712Z,16.9
2018-09-17T02:25:18.844Z,16.91
2018-09-17T02:25:44.988Z,16.94
2018-09-17T02:26:11.141Z,16.94
2018-09-17T02:26:37.272Z,16.87
2018-09-17T02:27:03.422Z,16.87
2018-09-17T02:27:29.552Z,16.87
2018-09-17T02:27:55.708Z,16.75
2018-09-17T02:28:21.839Z,16.83
2018-09-17T02:28:47.975Z,16.81
2018-09-17T02:29:14.110Z,16.93
2018-09-17T02:29:40.262Z,16.87
2018-09-17T02:30:06.420Z,16.86
2018-09-17T02:30:32.631Z,16.83
2018-09-17T02:30:58.757Z,16.84
2018-09-17T02:31:24.893Z,16.83
2018-09-17T02:31:51.046Z,16.71
2018-09-17T02:32:17.198Z,16.69
2018-09-17T02:32:43.366Z,16.72
2018-09-17T02:33:09.495Z,16.68
2018-09-17T02:33:35.637Z,16.79
2018-09-17T02:34:01.765Z,16.66
2018-09-17T02:34:27.895Z,16.68
2018-09-17T02:34:54.053Z,16.61
2018-09-17T02:35:20.194Z,16.61
2018-09-17T02:35:46.357Z,16.54
2018-09-17T02:36:12.505Z,16.43
2018-09-17T02:36:38.684Z,16.53
2018-09-17T02:37:04.812Z,16.43
2018-09-17T02:37:30.968Z,16.57
2018-09-17T02:37:57.135Z,16.61
2018-09-17T02:38:23.273Z,16.6
2018-09-17T02:38:49.442Z,16.58
2018-09-17T02:39:15.584Z,16.72
2018-09-17T02:39:41.736Z,16.71
2018-09-17T02:40:07.892Z,16.65
2018-09-17T02:40:34.041Z,16.68
2018-09-17T02:41:00.207Z,16.69
2018-09-17T02:41:26.364Z,16.75
2018-09-17T02:41:52.517Z,16.69
2018-09-17T02:42:18.643Z,16.74
2018-09-17T02:42:44.825Z,16.69
2018-09-17T02:43:10.966Z,16.74
2018-09-17T02:43:37.120Z,16.78
2018-09-17T02:44:03.279Z,16.74
2018-09-17T02:44:29.437Z,16.75
2018-09-17T02:44:55.591Z,16.79
2018-09-17T02:45:21.725Z,16.78
2018-09-17T02:45:47.914Z,16.79
2018-09-17T02:46:14.096Z,16.79
2018-09-17T02:46:40.254Z,16.84
2018-09-17T02:47:06.404Z,16.86
2018-09-17T02:47:32.580Z,16.79
2018-09-17T02:47:58.709Z,16.75
2018-09-17T02:48:24.847Z,16.74
2018-09-17T02:48:51.021Z,16.74
2018-09-17T02:49:17.162Z,16.84
2018-09-17T02:49:43.293Z,16.76
2018-09-17T02:50:09.421Z,16.79
2018-09-17T02:50:35.587Z,16.74
2018-09-17T02:51:01.739Z,16.74
2018-09-17T02:51:27.869Z,16.74
2018-09-17T02:51:54.024Z,16.69
2018-09-17T02:52:20.207Z,16.76
2018-09-17T02:52:46.346Z,16.65
2018-09-17T02:53:12.526Z,16.68
2018-09-17T02:53:38.738Z,16.66
2018-09-17T02:54:04.845Z,16.71
2018-09-17T02:54:30.967Z,16.57
2018-09-17T02:54:57.106Z,16.68
2018-09-17T02:55:23.237Z,16.68
2018-09-17T02:55:49.400Z,16.66
2018-09-17T02:56:15.530Z,16.72
2018-09-17T02:56:41.700Z,16.72
2018-09-17T02:57:07.847Z,16.71
2018-09-17T02:57:33.972Z,16.68
2018-09-17T02:58:00.130Z,16.66
2018-09-17T02:58:26.240Z,16.65
2018-09-17T02:58:52.399Z,16.58
2018-09-17T02:59:18.532Z,16.57
2018-09-17T02:59:44.658Z,16.58
2018-09-17T03:00:10.846Z,16.65
2018-09-17T03:00:36.979Z,16.71
2018-09-17T03:01:03.112Z,16.76
2018-09-17T03:01:29.269Z,16.69
2018-09-17T03:01:55.450Z,16.69
2018-09-17T03:02:21.659Z,16.71
2018-09-17T03:02:47.786Z,16.68
2018-09-17T03:03:13.924Z,16.61
2018-09-17T03:03:40.075Z,16.56
2018-09-17T03:04:06.205Z,16.53
2018-09-17T03:04:32.358Z,16.46
2018-09-17T03:04:58.516Z,16.46
2018-09-17T03:05:24.674Z,16.42
2018-09-17T03:05:50.829Z,16.57
2018-09-17T03:06:16.968Z,16.49
2018-09-17T03:06:43.120Z,16.47
2018-09-17T03:07:09.254Z,16.47
2018-09-17T03:07:35.406Z,16.58
2018-09-17T03:08:01.570Z,16.46
2018-09-17T03:08:27.711Z,16.51
2018-09-17T03:08:53.891Z,16.53
2018-09-17T03:09:20.051Z,16.56
2018-09-17T03:09:46.230Z,16.54
2018-09-17T03:10:12.401Z,16.58
2018-09-17T03:10:38.537Z,16.58
2018-09-17T03:11:04.676Z,16.61
2018-09-17T03:11:30.835Z,16.58
2018-09-17T03:11:56.989Z,16.51
2018-09-17T03:12:23.142Z,16.61
2018-09-17T03:12:49.299Z,16.57
2018-09-17T03:13:15.447Z,16.58
2018-09-17T03:13:41.608Z,16.72
2018-09-17T03:14:07.834Z,16.72
2018-09-17T03:14:33.932Z,16.71
2018-09-17T03:15:00.082Z,16.65
2018-09-17T03:15:26.213Z,16.68
2018-09-17T03:15:52.345Z,16.69
2018-09-17T03:16:18.480Z,16.76
2018-09-17T03:16:44.639Z,16.72
2018-09-17T03:17:10.796Z,16.69
2018-09-17T03:17:36.928Z,16.66
2018-09-17T03:18:03.056Z,16.66
2018-09-17T03:18:29.184Z,16.72
2018-09-17T03:18:55.341Z,16.68
2018-09-17T03:19:21.483Z,16.71
2018-09-17T03:19:47.642Z,16.81
2018-09-17T03:20:13.774Z,16.78
2018-09-17T03:20:39.951Z,16.81
2018-09-17T03:21:06.136Z,16.86
2018-09-17T03:21:32.232Z,16.78
2018-09-17T03:21:58.417Z,16.79
2018-09-17T03:22:24.552Z,16.83
2018-09-17T03:22:50.686Z,16.81
2018-09-17T03:23:16.819Z,16.76
2018-09-17T03:23:42.957Z,16.71
2018-09-17T03:24:09.146Z,16.69
2018-09-17T03:24:35.373Z,16.71
2018-09-17T03:25:01.427Z,16.69
2018-09-17T03:25:27.563Z,16.71
2018-09-17T03:25:53.717Z,16.65
2018-09-17T03:26:19.880Z,16.65
2018-09-17T03:26:46.013Z,16.71
2018-09-17T03:27:12.135Z,16.61
2018-09-17T03:27:38.266Z,16.56
2018-09-17T03:28:04.408Z,16.5
2018-09-17T03:28:30.540Z,16.6
2018-09-17T03:28:56.671Z,16.53
2018-09-17T03:29:22.798Z,16.57
2018-09-17T03:29:49.001Z,16.58
2018-09-17T03:30:15.153Z,16.5
2018-09-17T03:30:41.292Z,16.54
2018-09-17T03:31:07.447Z,16.49
2018-09-17T03:31:33.634Z,16.51
2018-09-17T03:31:59.820Z,16.57
2018-09-17T03:32:25.978Z,16.46
2018-09-17T03:32:52.131Z,16.47
2018-09-17T03:33:18.266Z,16.43
2018-09-17T03:33:44.396Z,16.56
2018-09-17T03:34:10.551Z,16.43
2018-09-17T03:34:36.689Z,16.39
2018-09-17T03:35:02.819Z,16.31
2018-09-17T03:35:28.973Z,16.32
2018-09-17T03:35:55.122Z,16.38
2018-09-17T03:36:21.251Z,16.32
2018-09-17T03:36:47.429Z,16.28
2018-09-17T03:37:13.569Z,16.28
2018-09-17T03:37:39.701Z,16.29
2018-09-17T03:38:05.859Z,16.28
2018-09-17T03:38:32.008Z,16.36
2018-09-17T03:38:58.151Z,16.29
2018-09-17T03:39:24.280Z,16.26
2018-09-17T03:39:50.412Z,16.26
2018-09-17T03:40:16.603Z,16.24
2018-09-17T03:40:42.732Z,16.33
2018-09-17T03:41:08.874Z,16.35
2018-09-17T03:41:35.007Z,16.32
2018-09-17T03:42:01.192Z,16.28
2018-09-17T03:42:27.337Z,16.33
2018-09-17T03:42:53.463Z,16.31
2018-09-17T03:43:19.630Z,16.29
2018-09-17T03:43:45.773Z,16.16
2018-09-17T03:44:11.940Z,16.32
2018-09-17T03:44:38.093Z,16.23
2018-09-17T03:45:04.243Z,16.21
2018-09-17T03:45:30.434Z,16.31
2018-09-17T03:45:56.574Z,16.31
2018-09-17T03:46:22.709Z,16.24
2018-09-17T03:46:48.896Z,16.15
2018-09-17T03:47:15.005Z,16.13
2018-09-17T03:47:41.167Z,16.13
2018-09-17T03:48:07.298Z,16.12
2018-09-17T03:48:33.456Z,16.12
2018-09-17T03:48:59.592Z,16.12
2018-09-17T03:49:25.725Z,16.1
2018-09-17T03:49:51.878Z,16.1
2018-09-17T03:50:18.008Z,16.12
2018-09-17T03:50:44.146Z,16.09
2018-09-17T03:51:10.283Z,16.16
2018-09-17T03:51:36.416Z,16.09
2018-09-17T03:52:02.543Z,16.17
2018-09-17T03:52:28.702Z,16.16
2018-09-17T03:52:54.828Z,16.1
2018-09-17T03:53:20.989Z,15.97
2018-09-17T03:53:47.132Z,16.08
2018-09-17T03:54:13.303Z,16.12
2018-09-17T03:54:39.435Z,16.09
2018-09-17T03:55:05.564Z,16.1
2018-09-17T03:55:31.695Z,16.09
2018-09-17T03:55:57.829Z,16.15
2018-09-17T03:56:23.960Z,16.2
2018-09-17T03:56:50.097Z,16.23
2018-09-17T03:57:16.236Z,16.13
2018-09-17T03:57:42.365Z,16.24
2018-09-17T03:58:08.522Z,16.24
2018-09-17T03:58:34.683Z,16.32
2018-09-17T03:59:00.845Z,16.31
2018-09-17T03:59:27.002Z,16.24
2018-09-17T03:59:53.142Z,16.16
2018-09-17T04:00:19.296Z,16.09
2018-09-17T04:00:45.432Z,16.02
2018-09-17T04:01:11.570Z,16.02
2018-09-17T04:01:37.703Z,15.95
2018-09-17T04:02:03.841Z,15.95
2018-09-17T04:02:29.979Z,16.01
2018-09-17T04:02:56.108Z,16.02
2018-09-17T04:03:22.258Z,15.98
2018-09-17T04:03:48.392Z,15.84
2018-09-17T04:04:14.551Z,15.86
2018-09-17T04:04:40.691Z,15.91
2018-09-17T04:05:06.824Z,15.98
2018-09-17T04:05:32.953Z,15.98
2018-09-17T04:05:59.115Z,15.95
2018-09-17T04:06:25.246Z,16.05
2018-09-17T04:06:51.384Z,16.04
2018-09-17T04:07:17.539Z,16.04
2018-09-17T04:07:43.671Z,16.04
2018-09-17T04:08:09.813Z,16.05
2018-09-17T04:08:35.940Z,16.02
2018-09-17T04:09:02.076Z,16.05
2018-09-17T04:09:28.214Z,16.09
2018-09-17T04:09:54.346Z,16.09
2018-09-17T04:10:20.476Z,16.09
2018-09-17T04:10:46.618Z,16.16
2018-09-17T04:11:12.775Z,16.16
2018-09-17T04:11:38.925Z,16.17
2018-09-17T04:12:05.080Z,16.13
2018-09-17T04:12:31.214Z,16.04
2018-09-17T04:12:57.375Z,16.02
2018-09-17T04:13:23.511Z,15.95
2018-09-17T04:13:49.669Z,15.94
2018-09-17T04:14:15.801Z,15.83
2018-09-17T04:14:41.931Z,15.9
2018-09-17T04:15:08.065Z,15.83
2018-09-17T04:15:34.220Z,16
2018-09-17T04:16:00.357Z,16.04
2018-09-17T04:16:26.511Z,16.01
2018-09-17T04:16:52.642Z,16.01
2018-09-17T04:17:18.773Z,16
2018-09-17T04:17:44.903Z,15.97
2018-09-17T04:18:11.034Z,16.01
2018-09-17T04:18:37.197Z,16.05
2018-09-17T04:19:03.324Z,16.01
2018-09-17T04:19:29.457Z,16.05
2018-09-17T04:19:55.593Z,15.98
2018-09-17T04:20:21.723Z,15.98
2018-09-17T04:20:47.859Z,15.88
2018-09-17T04:21:13.997Z,15.86
2018-09-17T04:21:40.124Z,15.72
2018-09-17T04:22:06.278Z,15.7
2018-09-17T04:22:32.418Z,15.75
2018-09-17T04:22:58.576Z,15.76
2018-09-17T04:23:24.737Z,15.65
2018-09-17T04:23:50.872Z,15.7
2018-09-17T04:24:16.998Z,15.65
2018-09-17T04:24:43.165Z,15.61
2018-09-17T04:25:09.302Z,15.72
2018-09-17T04:25:35.435Z,15.64
2018-09-17T04:26:01.594Z,15.62
2018-09-17T04:26:27.720Z,15.64
2018-09-17T04:26:53.868Z,15.62
2018-09-17T04:27:19.984Z,15.72
2018-09-17T04:27:46.120Z,15.73
2018-09-17T04:28:12.258Z,15.73
2018-09-17T04:28:38.392Z,15.67
2018-09-17T04:29:04.545Z,15.68
2018-09-17T04:29:30.685Z,15.79
2018-09-17T04:29:56.817Z,15.79
2018-09-17T04:30:22.961Z,15.75
2018-09-17T04:30:49.097Z,15.67
2018-09-17T04:31:15.230Z,15.76
2018-09-17T04:31:41.484Z,15.77
2018-09-17T04:32:07.486Z,15.83
2018-09-17T04:32:33.622Z,15.82
2018-09-17T04:32:59.799Z,15.84
2018-09-17T04:33:25.949Z,15.77
2018-09-17T04:33:52.083Z,15.7
2018-09-17T04:34:18.216Z,15.76
2018-09-17T04:34:44.347Z,15.72
2018-09-17T04:35:10.504Z,15.61
2018-09-17T04:35:36.661Z,15.59
2018-09-17T04:36:02.800Z,15.68
2018-09-17T04:36:28.930Z,15.68
2018-09-17T04:36:55.065Z,15.65
2018-09-17T04:37:21.381Z,15.73
2018-09-17T04:37:47.511Z,15.73
2018-09-17T04:38:13.652Z,15.7
2018-09-17T04:38:39.799Z,15.75
2018-09-17T04:39:05.931Z,15.75
2018-09-17T04:39:32.089Z,15.68
2018-09-17T04:39:58.223Z,15.72
2018-09-17T04:40:24.359Z,15.73
2018-09-17T04:40:50.486Z,15.73
2018-09-17T04:41:16.621Z,15.67
2018-09-17T04:41:42.760Z,15.75
2018-09-17T04:42:08.897Z,15.68
2018-09-17T04:42:35.043Z,15.67
2018-09-17T04:43:01.179Z,15.7
2018-09-17T04:43:27.310Z,15.75
2018-09-17T04:43:53.467Z,15.72
2018-09-17T04:44:19.627Z,15.72
2018-09-17T04:44:45.785Z,15.72
2018-09-17T04:45:11.919Z,15.7
2018-09-17T04:45:38.075Z,15.7
2018-09-17T04:46:04.233Z,15.75
2018-09-17T04:46:30.360Z,15.75
2018-09-17T04:46:56.497Z,15.77
2018-09-17T04:47:22.635Z,15.7
2018-09-17T04:47:48.785Z,15.73
2018-09-17T04:48:14.922Z,15.72
2018-09-17T04:48:41.050Z,15.77
2018-09-17T04:49:07.189Z,15.8
2018-09-17T04:49:33.325Z,15.73
2018-09-17T04:49:59.463Z,15.67
2018-09-17T04:50:25.618Z,15.73
2018-09-17T04:50:51.749Z,15.82
2018-09-17T04:51:17.884Z,15.86
2018-09-17T04:51:44.017Z,15.86
2018-09-17T04:52:10.142Z,15.88
2018-09-17T04:52:36.285Z,15.9
2018-09-17T04:53:02.418Z,15.76
2018-09-17T04:53:28.577Z,15.75
2018-09-17T04:53:54.712Z,15.77
2018-09-17T04:54:20.870Z,15.82
2018-09-17T04:54:46.994Z,15.77
2018-09-17T04:55:13.127Z,15.86
2018-09-17T04:55:39.264Z,15.83
2018-09-17T04:56:05.397Z,15.88
2018-09-17T04:56:31.526Z,15.95
2018-09-17T04:56:57.664Z,15.84
2018-09-17T04:57:23.847Z,15.82
2018-09-17T04:57:49.950Z,15.73
2018-09-17T04:58:16.136Z,15.73
2018-09-17T04:58:42.269Z,15.75
2018-09-17T04:59:08.410Z,15.77
2018-09-17T04:59:34.537Z,15.75
2018-09-17T05:00:00.668Z,15.7
2018-09-17T05:00:26.829Z,15.68
2018-09-17T05:00:52.962Z,15.64
2018-09-17T05:01:19.188Z,15.65
2018-09-17T05:01:45.285Z,15.65
2018-09-17T05:02:11.417Z,15.67
2018-09-17T05:02:37.569Z,15.7
2018-09-17T05:03:03.702Z,15.76
2018-09-17T05:03:29.835Z,15.73
2018-09-17T05:03:55.991Z,15.72
2018-09-17T05:04:22.123Z,15.72
2018-09-17T05:04:48.258Z,15.67
2018-09-17T05:05:14.393Z,15.68
2018-09-17T05:05:40.553Z,15.67
2018-09-17T05:06:06.684Z,15.67
2018-09-17T05:06:32.824Z,15.62
2018-09-17T05:06:58.957Z,15.61
2018-09-17T05:07:25.169Z,15.58
2018-09-17T05:07:51.249Z,15.65
2018-09-17T05:08:17.380Z,15.57
2018-09-17T05:08:43.517Z,15.65
2018-09-17T05:09:09.652Z,15.67
2018-09-17T05:09:35.781Z,15.72
2018-09-17T05:10:01.919Z,15.73
2018-09-17T05:10:28.055Z,15.62
2018-09-17T05:10:54.181Z,15.62
2018-09-17T05:11:20.312Z,15.62
2018-09-17T05:11:46.448Z,15.61
2018-09-17T05:12:12.606Z,15.58
2018-09-17T05:12:38.779Z,15.57
2018-09-17T05:13:04.939Z,15.49
2018-09-17T05:13:31.268Z,15.62
2018-09-17T05:13:57.221Z,15.57
2018-09-17T05:14:23.354Z,15.58
2018-09-17T05:14:49.512Z,15.49
2018-09-17T05:15:15.643Z,15.54
2018-09-17T05:15:41.776Z,15.46
2018-09-17T05:16:07.910Z,15.55
2018-09-17T05:16:34.067Z,15.62
2018-09-17T05:17:00.227Z,15.54
2018-09-17T05:17:26.362Z,15.67
2018-09-17T05:17:52.514Z,15.64
2018-09-17T05:18:18.658Z,15.59
2018-09-17T05:18:44.810Z,15.65
2018-09-17T05:19:10.969Z,15.73
2018-09-17T05:19:37.147Z,15.72
2018-09-17T05:20:03.277Z,15.75
2018-09-17T05:20:29.468Z,15.68
2018-09-17T05:20:55.594Z,15.73
2018-09-17T05:21:21.722Z,15.77
2018-09-17T05:21:47.874Z,15.9
2018-09-17T05:22:14.015Z,15.91
2018-09-17T05:22:40.170Z,15.86
2018-09-17T05:23:06.304Z,15.84
2018-09-17T05:23:32.458Z,15.86
2018-09-17T05:23:58.594Z,15.9
2018-09-17T05:24:24.726Z,15.88
2018-09-17T05:24:50.864Z,15.8
2018-09-17T05:25:17.012Z,15.73
2018-09-17T05:25:43.147Z,15.77
2018-09-17T05:26:09.279Z,15.8
2018-09-17T05:26:35.413Z,15.79
2018-09-17T05:27:01.591Z,15.84
2018-09-17T05:27:27.722Z,15.92
2018-09-17T05:27:53.880Z,15.98
2018-09-17T05:28:20.034Z,15.92
2018-09-17T05:28:46.165Z,15.98
2018-09-17T05:29:12.321Z,16
2018-09-17T05:29:38.458Z,15.91
2018-09-17T05:30:04.594Z,15.86
2018-09-17T05:30:30.729Z,15.86
2018-09-17T05:30:56.869Z,15.86
2018-09-17T05:31:23.005Z,15.84
2018-09-17T05:31:49.133Z,15.9
2018-09-17T05:32:15.294Z,16
2018-09-17T05:32:41.431Z,15.97
2018-09-17T05:33:07.583Z,15.97
2018-09-17T05:33:33.753Z,15.95
2018-09-17T05:33:59.888Z,15.97
2018-09-17T05:34:26.021Z,15.98
2018-09-17T05:34:52.247Z,15.82
2018-09-17T05:35:18.336Z,15.92
2018-09-17T05:35:44.473Z,15.94
2018-09-17T05:36:10.626Z,15.91
2018-09-17T05:36:36.751Z,16.04
2018-09-17T05:37:02.888Z,15.95
2018-09-17T05:37:29.026Z,15.97
2018-09-17T05:37:55.164Z,15.83